createdAt,value
2022-08-04T00:00:19.571Z,0.0
2022-08-04T00:02:19.575Z,0.0
2022-08-04T00:04:19.593Z,0.0
2022-08-04T00:06:19.575Z,0.0
2022-08-04T00:08:19.579Z,0.0
2022-08-04T00:10:19.562Z,0.0
2022-08-04T00:12:19.582Z,0.0
2022-08-04T00:14:19.570Z,0.0
2022-08-04T00:16:19.617Z,0.0
2022-08-04T00:18:19.558Z,0.0
2022-08-04T00:20:19.561Z,0.0
2022-08-04T00:22:19.591Z,0.0
2022-08-04T00:24:19.591Z,0.0
2022-08-04T00:26:19.568Z,0.0
2022-08-04T00:28:19.554Z,0.0
2022-08-04T00:30:19.580Z,0.0
2022-08-04T00:32:33.754Z,0.0
2022-08-04T00:34:19.566Z,0.0
2022-08-04T00:36:19.580Z,0.0
2022-08-04T00:38:19.566Z,0.0
2022-08-04T00:40:19.562Z,0.0
2022-08-04T00:42:19.578Z,0.0
2022-08-04T00:44:23.761Z,0.0
2022-08-04T00:46:19.575Z,0.0
2022-08-04T00:48:19.585Z,0.0
2022-08-04T00:50:19.595Z,0.0
2022-08-04T00:52:32.037Z,0.0
2022-08-04T00:54:19.591Z,0.0
2022-08-04T00:56:17.076Z,0.0
2022-08-04T00:58:17.089Z,0.0
2022-08-04T01:00:17.087Z,0.0
2022-08-04T01:02:17.110Z,0.0
2022-08-04T01:04:21.996Z,0.0
2022-08-04T01:06:17.135Z,0.0
2022-08-04T01:08:17.146Z,0.0
2022-08-04T01:10:17.756Z,0.0
2022-08-04T01:12:17.170Z,0.0
2022-08-04T01:14:17.198Z,0.0
2022-08-04T01:16:17.148Z,0.0
2022-08-04T01:18:17.165Z,0.0
2022-08-04T01:20:17.161Z,0.0
2022-08-04T01:22:17.161Z,0.0
2022-08-04T01:24:17.163Z,0.0
2022-08-04T01:26:41.976Z,0.0
2022-08-04T01:28:17.222Z,0.0
2022-08-04T01:30:17.200Z,0.0
2022-08-04T01:32:17.201Z,0.0
2022-08-04T01:34:17.170Z,0.0
2022-08-04T01:36:17.485Z,0.0
2022-08-04T01:38:18.405Z,0.0
2022-08-04T01:40:17.177Z,0.0
2022-08-04T01:42:22.483Z,0.0
2022-08-04T01:44:17.170Z,0.0
2022-08-04T01:46:17.241Z,0.0
2022-08-04T01:48:17.192Z,0.0
2022-08-04T01:50:17.232Z,0.0
2022-08-04T01:52:17.253Z,0.0
2022-08-04T01:54:17.177Z,0.0
2022-08-04T01:56:17.178Z,0.0
2022-08-04T01:58:17.192Z,0.0
2022-08-04T02:00:17.220Z,0.0
2022-08-04T02:02:17.258Z,0.0
2022-08-04T02:04:21.883Z,0.0
2022-08-04T02:06:17.157Z,0.0
2022-08-04T02:08:17.170Z,0.0
2022-08-04T02:10:17.166Z,0.0
2022-08-04T02:12:17.172Z,0.0
2022-08-04T02:14:17.173Z,0.0
2022-08-04T02:16:17.164Z,0.0
2022-08-04T02:18:17.209Z,0.0
2022-08-04T02:20:17.154Z,0.0
2022-08-04T02:22:17.198Z,0.0
2022-08-04T02:24:17.183Z,0.0
2022-08-04T02:26:19.995Z,0.0
2022-08-04T02:28:17.224Z,0.0
2022-08-04T02:30:18.446Z,0.0
2022-08-04T02:32:17.187Z,0.0
2022-08-04T02:34:17.186Z,0.0
2022-08-04T02:36:17.208Z,0.0
2022-08-04T02:38:17.181Z,0.0
2022-08-04T02:40:17.194Z,0.0
2022-08-04T02:42:17.210Z,0.0
2022-08-04T02:44:17.224Z,0.0
2022-08-04T02:46:18.056Z,0.0
2022-08-04T02:48:30.238Z,0.0
2022-08-04T02:50:28.632Z,0.0
2022-08-04T02:52:17.219Z,0.0
2022-08-04T02:54:31.600Z,0.0
2022-08-04T02:56:17.218Z,0.0
2022-08-04T02:58:17.220Z,0.0
2022-08-04T03:00:17.256Z,0.0
2022-08-04T03:02:17.237Z,0.0
2022-08-04T03:04:24.806Z,0.0
2022-08-04T03:06:17.226Z,0.0
2022-08-04T03:08:17.256Z,0.0
2022-08-04T03:10:17.258Z,0.0
2022-08-04T03:12:17.242Z,0.0
2022-08-04T03:14:17.239Z,0.0
2022-08-04T03:16:17.287Z,0.0
2022-08-04T03:18:17.321Z,0.0
2022-08-04T03:20:17.254Z,0.0
2022-08-04T03:22:17.269Z,0.0
2022-08-04T03:24:20.177Z,0.0
2022-08-04T03:26:17.257Z,0.0
2022-08-04T03:28:17.298Z,0.0
2022-08-04T03:30:17.274Z,0.0
2022-08-04T03:32:17.651Z,0.0
2022-08-04T03:34:17.620Z,0.0
2022-08-04T03:36:17.593Z,0.0
2022-08-04T03:38:17.565Z,0.0
2022-08-04T03:40:17.621Z,0.0
2022-08-04T03:42:17.599Z,0.0
2022-08-04T03:44:17.585Z,0.0
2022-08-04T03:46:17.654Z,0.0
2022-08-04T03:48:17.651Z,0.0
2022-08-04T03:50:17.615Z,0.0
2022-08-04T03:52:17.627Z,0.0
2022-08-04T03:54:17.623Z,0.0
2022-08-04T03:56:17.609Z,0.0
2022-08-04T03:58:17.397Z,0.0
2022-08-04T04:00:17.716Z,0.0
2022-08-04T04:02:17.726Z,0.0
2022-08-04T04:04:17.317Z,0.0
2022-08-04T04:06:17.318Z,0.0
2022-08-04T04:08:19.024Z,0.0
2022-08-04T04:10:17.277Z,0.0
2022-08-04T04:12:17.365Z,0.0
2022-08-04T04:14:17.299Z,0.0
2022-08-04T04:16:17.301Z,0.0
2022-08-04T04:18:17.301Z,0.0
2022-08-04T04:20:17.312Z,0.0
2022-08-04T04:22:17.344Z,0.0
2022-08-04T04:24:17.325Z,0.0
2022-08-04T04:26:17.363Z,0.0
2022-08-04T04:28:44.953Z,0.0
2022-08-04T04:30:17.350Z,0.1
2022-08-04T04:32:17.311Z,0.0
2022-08-04T04:34:17.366Z,0.0
2022-08-04T04:36:17.360Z,0.0
2022-08-04T04:38:17.349Z,0.0
2022-08-04T04:40:17.318Z,0.0
2022-08-04T04:42:17.342Z,0.0
2022-08-04T04:44:17.347Z,0.0
2022-08-04T04:46:17.355Z,0.0
2022-08-04T04:48:17.336Z,0.0
2022-08-04T04:50:17.343Z,0.0
2022-08-04T04:52:17.343Z,0.0
2022-08-04T04:54:17.373Z,0.0
2022-08-04T04:56:17.363Z,0.0
2022-08-04T04:58:17.368Z,0.0
2022-08-04T05:00:17.398Z,0.0
2022-08-04T05:02:17.343Z,0.0
2022-08-04T05:04:17.368Z,0.0
2022-08-04T05:06:17.346Z,0.0
2022-08-04T05:08:45.069Z,0.0
2022-08-04T05:10:17.486Z,0.0
2022-08-04T05:14:31.860Z,0.0
2022-08-04T05:14:36.278Z,0.0
2022-08-04T05:14:37.546Z,0.0
2022-08-04T05:14:42.002Z,0.0
2022-08-04T05:16:17.379Z,0.0
2022-08-04T05:18:17.383Z,0.0
2022-08-04T05:20:17.370Z,0.0
2022-08-04T05:22:17.367Z,0.0
2022-08-04T05:24:17.747Z,0.0
2022-08-04T05:26:17.387Z,0.0
2022-08-04T05:28:17.361Z,0.0
2022-08-04T05:30:17.412Z,0.0
2022-08-04T05:32:17.393Z,0.0
2022-08-04T05:34:17.431Z,0.0
2022-08-04T05:36:32.695Z,0.0
2022-08-04T05:38:17.385Z,0.0
2022-08-04T05:40:17.421Z,0.0
2022-08-04T05:42:17.392Z,0.4
2022-08-04T05:44:17.409Z,0.0
2022-08-04T05:46:17.435Z,0.1
2022-08-04T05:48:17.416Z,0.3
2022-08-04T05:50:17.402Z,0.0
2022-08-04T05:52:17.430Z,0.0
2022-08-04T05:54:17.435Z,0.2
2022-08-04T05:56:17.418Z,0.8
2022-08-04T05:58:17.415Z,0.0
2022-08-04T06:00:38.818Z,0.1
2022-08-04T06:02:17.504Z,1.5
2022-08-04T06:04:17.427Z,0.0
2022-08-04T06:06:17.439Z,0.3
2022-08-04T06:08:17.360Z,1.4
2022-08-04T06:10:17.387Z,1.2
2022-08-04T06:12:17.411Z,0.0
2022-08-04T06:14:17.368Z,0.0
2022-08-04T06:16:28.910Z,0.2
2022-08-04T06:18:35.518Z,1.5
2022-08-04T06:20:03.983Z,1.5
2022-08-04T06:20:23.387Z,0.2
2022-08-04T06:22:17.387Z,0.8
2022-08-04T06:24:17.373Z,2.0
2022-08-04T06:26:17.391Z,0.2
2022-08-04T06:28:17.407Z,1.8
2022-08-04T06:30:17.400Z,0.3
2022-08-04T06:32:27.669Z,0.6
2022-08-04T06:34:17.420Z,0.5
2022-08-04T06:36:17.440Z,1.4
2022-08-04T06:38:17.400Z,1.1
2022-08-04T06:40:31.965Z,1.2
2022-08-04T06:42:22.655Z,1.6
2022-08-04T06:44:17.456Z,0.6
2022-08-04T06:46:17.421Z,2.3
2022-08-04T06:48:17.431Z,3.4
2022-08-04T06:51:24.570Z,4.2
2022-08-04T06:51:25.044Z,4.2
2022-08-04T06:52:17.433Z,2.8
2022-08-04T06:54:17.433Z,4.6
2022-08-04T06:56:17.445Z,3.2
2022-08-04T06:58:17.449Z,1.0
2022-08-04T07:00:17.699Z,0.5
2022-08-04T07:02:17.989Z,0.4
2022-08-04T07:04:18.156Z,0.2
2022-08-04T07:06:17.743Z,0.0
2022-08-04T07:08:17.478Z,0.0
2022-08-04T07:10:21.660Z,0.0
2022-08-04T07:12:17.475Z,1.0
2022-08-04T07:14:17.474Z,0.1
2022-08-04T07:16:17.485Z,0.3
2022-08-04T07:18:17.512Z,2.1
2022-08-04T07:20:35.976Z,0.9
2022-08-04T07:22:24.802Z,2.5
2022-08-04T07:24:17.498Z,1.5
2022-08-04T07:26:17.510Z,2.5
2022-08-04T07:28:17.510Z,3.9
2022-08-04T07:30:21.741Z,3.1
2022-08-04T07:32:17.498Z,1.1
2022-08-04T07:34:22.057Z,1.4
2022-08-04T07:36:17.521Z,0.3
2022-08-04T07:38:17.514Z,0.2
2022-08-04T07:40:17.562Z,0.3
2022-08-04T07:42:17.526Z,2.5
2022-08-04T07:44:17.462Z,1.4
2022-08-04T07:46:17.514Z,1.7
2022-08-04T07:48:17.463Z,2.7
2022-08-04T07:50:17.466Z,6.0
2022-08-04T07:52:17.498Z,3.3
2022-08-04T07:54:17.493Z,4.4
2022-08-04T07:56:17.734Z,3.5
2022-08-04T07:58:17.481Z,0.3
2022-08-04T08:00:17.522Z,2.5
2022-08-04T08:02:17.523Z,0.3
2022-08-04T08:04:17.479Z,2.5
2022-08-04T08:06:32.027Z,2.1
2022-08-04T08:08:17.503Z,0.3
2022-08-04T08:10:17.476Z,3.4
2022-08-04T08:12:36.639Z,2.4
2022-08-04T08:14:17.501Z,2.6
2022-08-04T08:16:17.503Z,3.5
2022-08-04T08:18:18.034Z,5.0
2022-08-04T08:20:29.050Z,1.4
2022-08-04T08:22:17.533Z,1.7
2022-08-04T08:24:17.498Z,4.0
2022-08-04T08:26:17.510Z,5.2
2022-08-04T08:28:17.517Z,5.9
2022-08-04T08:30:17.535Z,4.8
2022-08-04T08:32:17.523Z,0.4
2022-08-04T08:34:21.648Z,5.3
2022-08-04T08:36:17.523Z,3.7
2022-08-04T08:38:17.646Z,4.3
2022-08-04T08:40:17.604Z,3.0
2022-08-04T08:42:17.516Z,5.2
2022-08-04T08:44:19.043Z,2.4
2022-08-04T08:46:33.144Z,5.1
2022-08-04T08:48:17.533Z,4.8
2022-08-04T08:50:17.556Z,2.7
2022-08-04T08:52:17.915Z,1.0
2022-08-04T08:54:17.609Z,4.3
2022-08-04T08:56:17.561Z,5.6
2022-08-04T08:58:17.551Z,3.3
2022-08-04T09:00:17.559Z,2.9
2022-08-04T09:02:17.581Z,2.7
2022-08-04T09:04:23.826Z,3.3
2022-08-04T09:06:17.577Z,3.2
2022-08-04T09:08:17.609Z,5.5
2022-08-04T09:10:17.696Z,4.0
2022-08-04T09:12:17.614Z,2.2
2022-08-04T09:14:17.606Z,2.6
2022-08-04T09:16:17.609Z,3.0
2022-08-04T09:18:17.605Z,1.1
2022-08-04T09:20:18.039Z,4.3
2022-08-04T09:22:17.602Z,3.0
2022-08-04T09:24:35.099Z,4.4
2022-08-04T09:26:17.624Z,1.9
2022-08-04T09:28:37.250Z,2.9
2022-08-04T09:30:17.661Z,2.2
2022-08-04T09:32:17.615Z,1.4
2022-08-04T09:34:17.635Z,3.9
2022-08-04T09:36:26.145Z,2.4
2022-08-04T09:38:17.609Z,2.5
2022-08-04T09:40:31.924Z,4.1
2022-08-04T09:42:17.625Z,6.1
2022-08-04T09:44:50.505Z,1.8
2022-08-04T09:46:17.616Z,3.5
2022-08-04T09:48:17.635Z,7.7
2022-08-04T09:50:17.751Z,4.9
2022-08-04T09:52:17.642Z,5.5
2022-08-04T09:54:30.799Z,5.9
2022-08-04T09:56:17.632Z,7.4
2022-08-04T09:58:17.640Z,5.6
2022-08-04T10:00:17.659Z,4.8
2022-08-04T10:02:17.706Z,2.8
2022-08-04T10:04:17.665Z,2.6
2022-08-04T10:06:17.702Z,5.2
2022-08-04T10:08:17.694Z,6.3
2022-08-04T10:10:17.789Z,7.4
2022-08-04T10:12:17.664Z,5.2
2022-08-04T10:14:22.725Z,4.0
2022-08-04T10:16:17.729Z,5.2
2022-08-04T10:18:17.664Z,4.6
2022-08-04T10:20:34.023Z,2.9
2022-08-04T10:22:28.958Z,2.6
2022-08-04T10:24:17.680Z,4.0
2022-08-04T10:26:17.739Z,1.7
2022-08-04T10:28:17.798Z,4.0
2022-08-04T10:30:17.722Z,2.1
2022-08-04T10:32:17.775Z,4.6
2022-08-04T10:34:17.713Z,2.1
2022-08-04T10:36:17.773Z,4.5
2022-08-04T10:38:17.951Z,3.7
2022-08-04T10:40:17.723Z,4.1
2022-08-04T10:42:17.692Z,3.5
2022-08-04T10:44:17.691Z,0.3
2022-08-04T10:46:17.842Z,1.9
2022-08-04T10:48:17.707Z,1.1
2022-08-04T10:50:17.857Z,2.7
2022-08-04T10:52:17.706Z,5.3
2022-08-04T10:54:17.728Z,4.1
2022-08-04T10:56:17.727Z,4.5
2022-08-04T10:58:17.713Z,6.5
2022-08-04T11:00:17.729Z,5.3
2022-08-04T11:02:17.717Z,2.8
2022-08-04T11:04:27.471Z,2.9
2022-08-04T11:06:17.728Z,3.7
2022-08-04T11:08:21.571Z,0.1
2022-08-04T11:10:17.802Z,1.0
2022-08-04T11:12:17.731Z,5.8
2022-08-04T11:14:17.741Z,6.7
2022-08-04T11:16:17.749Z,4.8
2022-08-04T11:18:17.780Z,4.4
2022-08-04T11:20:34.539Z,9.2
2022-08-04T11:22:17.740Z,9.2
2022-08-04T11:24:17.774Z,4.5
2022-08-04T11:26:18.017Z,4.0
2022-08-04T11:28:17.762Z,3.4
2022-08-04T11:30:17.755Z,2.7
2022-08-04T11:32:17.785Z,1.0
2022-08-04T11:34:17.772Z,1.9
2022-08-04T11:36:17.768Z,3.6
2022-08-04T11:38:17.764Z,4.6
2022-08-04T11:40:17.739Z,4.9
2022-08-04T11:42:17.727Z,1.1
2022-08-04T11:44:17.734Z,5.9
2022-08-04T11:46:17.722Z,6.2
2022-08-04T11:48:17.746Z,5.6
2022-08-04T11:50:17.726Z,5.3
2022-08-04T11:52:17.988Z,8.0
2022-08-04T11:54:17.735Z,7.3
2022-08-04T11:56:36.978Z,4.3
2022-08-04T11:58:17.744Z,2.0
2022-08-04T12:00:17.888Z,1.0
2022-08-04T12:02:21.028Z,1.6
2022-08-04T12:04:17.821Z,3.4
2022-08-04T12:06:17.794Z,2.7
2022-08-04T12:08:17.778Z,0.4
2022-08-04T12:10:17.787Z,2.5
2022-08-04T12:12:18.471Z,4.4
2022-08-04T12:14:17.794Z,0.9
2022-08-04T12:16:17.845Z,4.4
2022-08-04T12:18:17.832Z,2.1
2022-08-04T12:20:31.954Z,0.5
2022-08-04T12:22:17.855Z,0.6
2022-08-04T12:24:17.824Z,1.8
2022-08-04T12:26:17.806Z,0.4
2022-08-04T12:28:17.829Z,2.2
2022-08-04T12:30:59.534Z,1.5
2022-08-04T12:32:17.805Z,1.5
2022-08-04T12:34:17.833Z,1.3
2022-08-04T12:36:20.966Z,2.0
2022-08-04T12:38:17.853Z,4.4
2022-08-04T12:40:30.027Z,3.6
2022-08-04T12:42:21.270Z,2.5
2022-08-04T12:44:36.973Z,7.1
2022-08-04T12:46:17.778Z,3.1
2022-08-04T12:48:21.124Z,1.2
2022-08-04T12:50:17.789Z,0.2
2022-08-04T12:52:17.783Z,4.6
2022-08-04T12:54:18.049Z,4.0
2022-08-04T12:56:17.806Z,2.4
2022-08-04T12:58:42.600Z,0.6
2022-08-04T13:00:17.859Z,1.2
2022-08-04T13:02:17.977Z,2.3
2022-08-04T13:04:17.866Z,2.0
2022-08-04T13:06:21.371Z,4.3
2022-08-04T13:08:17.974Z,3.1
2022-08-04T13:10:18.463Z,7.3
2022-08-04T13:12:17.849Z,3.9
2022-08-04T13:14:27.110Z,6.0
2022-08-04T13:16:17.869Z,3.6
2022-08-04T13:18:17.835Z,2.8
2022-08-04T13:20:17.858Z,2.7
2022-08-04T13:22:17.880Z,3.2
2022-08-04T13:24:21.359Z,1.7
2022-08-04T13:26:42.335Z,1.7
2022-08-04T13:26:43.969Z,1.7
2022-08-04T13:26:56.283Z,2.2
2022-08-04T13:28:17.866Z,1.9
2022-08-04T13:30:22.961Z,4.4
2022-08-04T13:32:17.874Z,5.2
2022-08-04T13:34:18.774Z,6.2
2022-08-04T13:36:17.892Z,5.8
2022-08-04T13:38:17.916Z,5.0
2022-08-04T13:40:17.876Z,2.3
2022-08-04T13:42:17.982Z,4.1
2022-08-04T13:44:20.334Z,1.7
2022-08-04T13:46:27.098Z,3.7
2022-08-04T13:48:32.188Z,0.1
2022-08-04T13:50:17.946Z,0.6
2022-08-04T13:52:17.948Z,1.0
2022-08-04T13:54:17.916Z,0.2
2022-08-04T13:56:17.971Z,3.5
2022-08-04T13:58:17.949Z,3.6
2022-08-04T14:00:29.166Z,4.2
2022-08-04T14:02:17.921Z,3.5
2022-08-04T14:04:17.992Z,5.5
2022-08-04T14:06:18.169Z,6.1
2022-08-04T14:08:17.919Z,5.4
2022-08-04T14:10:17.868Z,7.5
2022-08-04T14:12:45.264Z,5.7
2022-08-04T14:14:17.866Z,2.1
2022-08-04T14:16:17.957Z,0.8
2022-08-04T14:18:17.894Z,2.5
2022-08-04T14:20:17.888Z,2.4
2022-08-04T14:22:17.910Z,1.2
2022-08-04T14:24:17.879Z,1.0
2022-08-04T14:26:17.914Z,1.6
2022-08-04T14:28:17.903Z,2.4
2022-08-04T14:30:18.085Z,3.9
2022-08-04T14:32:21.515Z,8.1
2022-08-04T14:34:18.914Z,10.6
2022-08-04T14:36:17.922Z,2.2
2022-08-04T14:38:17.901Z,1.5
2022-08-04T14:40:30.648Z,4.1
2022-08-04T14:42:17.893Z,1.7
2022-08-04T14:44:17.949Z,1.1
2022-08-04T14:46:17.906Z,1.8
2022-08-04T14:48:18.172Z,1.3
2022-08-04T14:50:17.902Z,2.1
2022-08-04T14:52:17.922Z,3.0
2022-08-04T14:54:19.074Z,3.4
2022-08-04T14:56:37.500Z,2.5
2022-08-04T14:58:35.053Z,1.9
2022-08-04T15:00:19.161Z,4.2
2022-08-04T15:02:17.984Z,3.1
2022-08-04T15:04:17.928Z,5.7
2022-08-04T15:06:21.868Z,6.4
2022-08-04T15:08:17.932Z,3.3
2022-08-04T15:10:18.013Z,0.9
2022-08-04T15:12:17.971Z,1.0
2022-08-04T15:14:36.914Z,4.4
2022-08-04T15:16:17.985Z,2.0
2022-08-04T15:18:17.984Z,3.0
2022-08-04T15:20:17.951Z,2.6
2022-08-04T15:22:18.031Z,2.7
2022-08-04T15:24:17.996Z,3.8
2022-08-04T15:26:17.995Z,3.5
2022-08-04T15:28:17.972Z,3.8
2022-08-04T15:30:18.124Z,3.4
2022-08-04T15:32:18.332Z,2.9
2022-08-04T15:34:18.229Z,2.8
2022-08-04T15:36:18.273Z,1.3
2022-08-04T15:38:18.217Z,4.1
2022-08-04T15:40:18.330Z,3.1
2022-08-04T15:42:21.412Z,2.9
2022-08-04T15:44:18.327Z,0.6
2022-08-04T15:46:44.035Z,0.4
2022-08-04T15:48:17.994Z,1.1
2022-08-04T15:50:28.418Z,3.5
2022-08-04T15:52:18.223Z,3.5
2022-08-04T15:54:24.471Z,2.7
2022-08-04T15:56:17.986Z,2.3
2022-08-04T15:58:17.999Z,2.2
2022-08-04T16:00:17.987Z,0.1
2022-08-04T16:02:18.164Z,2.4
2022-08-04T16:04:18.037Z,1.6
2022-08-04T16:06:18.058Z,1.2
2022-08-04T16:08:18.036Z,3.0
2022-08-04T16:10:18.079Z,1.4
2022-08-04T16:12:37.937Z,0.0
2022-08-04T16:14:18.055Z,0.0
2022-08-04T16:16:18.038Z,0.5
2022-08-04T16:18:26.838Z,1.4
2022-08-04T16:20:18.041Z,1.5
2022-08-04T16:22:18.042Z,0.0
2022-08-04T16:24:18.054Z,2.7
2022-08-04T16:26:30.734Z,2.9
2022-08-04T16:28:18.040Z,2.6
2022-08-04T16:30:18.033Z,0.5
2022-08-04T16:32:18.038Z,1.2
2022-08-04T16:34:47.127Z,2.8
2022-08-04T16:36:18.059Z,1.0
2022-08-04T16:38:18.125Z,1.5
2022-08-04T16:40:18.054Z,1.3
2022-08-04T16:42:18.052Z,0.1
2022-08-04T16:44:36.311Z,0.2
2022-08-04T16:46:21.902Z,1.5
2022-08-04T16:48:18.111Z,0.7
2022-08-04T16:50:18.074Z,0.5
2022-08-04T16:52:18.097Z,1.2
2022-08-04T16:54:18.059Z,2.8
2022-08-04T16:56:18.092Z,5.3
2022-08-04T16:58:18.133Z,2.8
2022-08-04T17:00:18.116Z,1.1
2022-08-04T17:02:18.347Z,1.6
2022-08-04T17:04:18.322Z,1.2
2022-08-04T17:06:18.073Z,0.0
2022-08-04T17:08:29.604Z,0.8
2022-08-04T17:10:18.094Z,1.5
2022-08-04T17:12:18.086Z,0.4
2022-08-04T17:14:18.089Z,0.7
2022-08-04T17:16:18.647Z,1.3
2022-08-04T17:18:18.732Z,0.7
2022-08-04T17:20:18.077Z,1.0
2022-08-04T17:22:18.093Z,0.7
2022-08-04T17:24:18.300Z,0.1
2022-08-04T17:26:18.117Z,0.5
2022-08-04T17:28:26.244Z,0.6
2022-08-04T17:30:18.079Z,1.2
2022-08-04T17:32:18.092Z,1.1
2022-08-04T17:34:19.448Z,0.1
2022-08-04T17:36:18.143Z,0.3
2022-08-04T17:38:18.095Z,0.5
2022-08-04T17:40:26.178Z,0.1
2022-08-04T17:42:18.147Z,0.0
2022-08-04T17:44:18.119Z,0.3
2022-08-04T17:46:18.926Z,0.3
2022-08-04T17:48:24.749Z,0.0
2022-08-04T17:50:18.124Z,0.0
2022-08-04T17:52:41.478Z,0.3
2022-08-04T17:54:18.119Z,0.1
2022-08-04T17:56:18.128Z,0.0
2022-08-04T17:58:20.862Z,0.0
2022-08-04T18:00:19.445Z,0.0
2022-08-04T18:02:18.142Z,0.0
2022-08-04T18:04:18.150Z,0.0
2022-08-04T18:06:18.136Z,0.0
2022-08-04T18:08:45.773Z,0.9
2022-08-04T18:10:32.883Z,0.3
2022-08-04T18:12:18.159Z,0.0
2022-08-04T18:14:18.139Z,0.2
2022-08-04T18:16:22.637Z,0.0
2022-08-04T18:18:20.925Z,0.0
2022-08-04T18:20:18.157Z,0.6
2022-08-04T18:22:27.895Z,0.1
2022-08-04T18:24:18.178Z,0.0
2022-08-04T18:26:18.160Z,0.3
2022-08-04T18:28:22.606Z,0.1
2022-08-04T18:30:36.550Z,0.0
2022-08-04T18:32:18.164Z,0.0
2022-08-04T18:34:24.192Z,0.0
2022-08-04T18:36:36.703Z,0.0
2022-08-04T18:38:23.440Z,0.0
2022-08-04T18:40:27.933Z,0.0
2022-08-04T18:42:18.363Z,0.0
2022-08-04T18:44:18.182Z,0.0
2022-08-04T18:46:18.397Z,0.0
2022-08-04T18:48:18.227Z,0.0
2022-08-04T18:50:59.630Z,0.0
2022-08-04T18:52:18.244Z,0.0
2022-08-04T18:54:18.214Z,0.0
2022-08-04T18:56:29.170Z,0.0
2022-08-04T18:58:27.257Z,0.0
2022-08-04T19:00:19.976Z,0.0
2022-08-04T19:02:18.208Z,0.0
2022-08-04T19:04:32.992Z,0.0
2022-08-04T19:06:18.216Z,0.0
2022-08-04T19:08:35.548Z,0.0
2022-08-04T19:10:23.964Z,0.0
2022-08-04T19:12:26.979Z,0.0
2022-08-04T19:14:18.333Z,0.0
2022-08-04T19:16:22.099Z,0.0
2022-08-04T19:18:18.669Z,0.2
2022-08-04T19:20:25.561Z,0.0
2022-08-04T19:22:35.890Z,0.0
2022-08-04T19:24:32.270Z,0.0
2022-08-04T19:26:27.780Z,0.0
2022-08-04T19:28:18.294Z,0.0
2022-08-04T19:30:18.217Z,0.0
2022-08-04T19:32:18.236Z,0.1
2022-08-04T19:34:33.013Z,0.5
2022-08-04T19:36:18.244Z,0.4
2022-08-04T19:38:18.252Z,0.1
2022-08-04T19:40:33.995Z,0.0
2022-08-04T19:42:18.265Z,0.0
2022-08-04T19:44:18.347Z,0.7
2022-08-04T19:46:18.225Z,0.0
2022-08-04T19:48:20.007Z,0.0
2022-08-04T19:50:18.236Z,0.0
2022-08-04T19:53:33.173Z,0.0
2022-08-04T19:54:23.847Z,0.0
2022-08-04T19:56:18.250Z,0.0
2022-08-04T19:58:18.368Z,0.0
2022-08-04T20:00:33.284Z,0.2
2022-08-04T20:02:18.248Z,0.0
2022-08-04T20:04:18.293Z,0.0
2022-08-04T20:06:18.271Z,0.0
2022-08-04T20:08:18.304Z,0.0
2022-08-04T20:10:18.320Z,0.0
2022-08-04T20:12:18.418Z,0.0
2022-08-04T20:14:18.387Z,0.0
2022-08-04T20:16:29.247Z,0.0
2022-08-04T20:18:35.895Z,0.0
2022-08-04T20:20:18.391Z,0.0
2022-08-04T20:22:50.788Z,0.0
2022-08-04T20:24:40.037Z,0.0
2022-08-04T20:26:18.524Z,0.0
2022-08-04T20:28:36.039Z,0.0
2022-08-04T20:30:19.090Z,0.0
2022-08-04T20:32:19.515Z,0.0
2022-08-04T20:34:18.265Z,0.0
2022-08-04T20:36:18.284Z,0.0
2022-08-04T20:38:33.534Z,0.0
2022-08-04T20:40:18.253Z,0.0
2022-08-04T20:42:18.292Z,0.0
2022-08-04T20:44:22.206Z,0.0
2022-08-04T20:46:28.654Z,0.0
2022-08-04T20:48:18.273Z,0.0
2022-08-04T20:50:18.287Z,0.0
2022-08-04T20:52:20.813Z,0.0
2022-08-04T20:54:23.029Z,0.0
2022-08-04T20:56:19.071Z,0.0
2022-08-04T20:58:18.268Z,0.0
2022-08-04T21:00:26.515Z,0.0
2022-08-04T21:02:18.318Z,0.0
2022-08-04T21:04:27.523Z,0.0
2022-08-04T21:06:18.322Z,0.0
2022-08-04T21:08:18.298Z,0.0
2022-08-04T21:10:18.327Z,0.0
2022-08-04T21:12:27.170Z,0.0
2022-08-04T21:14:18.332Z,0.0
2022-08-04T21:16:55.587Z,0.0
2022-08-04T21:18:18.330Z,0.0
2022-08-04T21:20:27.186Z,0.0
2022-08-04T21:22:29.811Z,0.0
2022-08-04T21:24:18.330Z,0.0
2022-08-04T21:26:19.814Z,0.4
2022-08-04T21:28:20.471Z,0.0
2022-08-04T21:30:25.258Z,0.0
2022-08-04T21:32:18.487Z,0.0
2022-08-04T21:35:37.183Z,0.0
2022-08-04T21:36:19.791Z,0.0
2022-08-04T21:38:18.365Z,0.0
2022-08-04T21:40:32.731Z,0.0
2022-08-04T21:42:28.650Z,0.0
2022-08-04T21:44:18.390Z,0.0
2022-08-04T21:46:18.466Z,0.5
2022-08-04T21:48:18.343Z,0.0
2022-08-04T21:50:20.084Z,0.0
2022-08-04T21:52:18.345Z,0.0
2022-08-04T21:54:18.379Z,0.0
2022-08-04T21:56:18.376Z,0.0
2022-08-04T21:58:18.364Z,0.0
2022-08-04T22:00:20.154Z,0.0
2022-08-04T22:02:18.549Z,0.0
2022-08-04T22:04:18.378Z,0.0
2022-08-04T22:06:18.381Z,0.0
2022-08-04T22:08:19.930Z,0.0
2022-08-04T22:10:31.876Z,0.0
2022-08-04T22:12:21.045Z,0.0
2022-08-04T22:16:03.450Z,0.0
2022-08-04T22:16:19.183Z,0.0
2022-08-04T22:18:18.737Z,0.0
2022-08-04T22:20:27.645Z,0.0
2022-08-04T22:22:25.144Z,0.0
2022-08-04T22:24:18.405Z,0.0
2022-08-04T22:26:20.248Z,0.0
2022-08-04T22:28:18.790Z,0.0
2022-08-04T22:30:18.431Z,0.0
2022-08-04T22:32:18.400Z,0.0
2022-08-04T22:34:18.408Z,0.0
2022-08-04T22:36:18.431Z,0.0
2022-08-04T22:38:24.530Z,0.0
2022-08-04T22:40:18.418Z,0.0
2022-08-04T22:42:18.417Z,0.0
2022-08-04T22:44:18.410Z,0.0
2022-08-04T22:46:18.418Z,0.0
2022-08-04T22:48:18.416Z,0.0
2022-08-04T22:50:27.833Z,0.0
2022-08-04T22:52:27.870Z,0.0
2022-08-04T22:54:18.425Z,0.0
2022-08-04T22:56:37.739Z,0.0
2022-08-04T22:58:18.445Z,0.0
2022-08-04T23:00:18.423Z,0.0
2022-08-04T23:02:18.422Z,0.0
2022-08-04T23:04:18.452Z,0.0
2022-08-04T23:06:18.424Z,0.0
2022-08-04T23:08:18.427Z,0.0
2022-08-04T23:10:18.482Z,0.0
2022-08-04T23:12:27.033Z,0.0
2022-08-04T23:14:18.524Z,0.0
2022-08-04T23:16:18.443Z,0.0
2022-08-04T23:18:18.483Z,0.0
2022-08-04T23:20:23.377Z,0.0
2022-08-04T23:22:18.462Z,0.0
2022-08-04T23:24:18.453Z,0.0
2022-08-04T23:26:18.451Z,0.0
2022-08-04T23:28:18.444Z,0.0
2022-08-04T23:30:18.456Z,0.0
2022-08-04T23:32:20.249Z,0.0
2022-08-04T23:34:18.860Z,0.0
2022-08-04T23:36:18.462Z,0.0
2022-08-04T23:38:31.666Z,0.0
2022-08-04T23:40:32.339Z,0.0
2022-08-04T23:42:20.869Z,0.0
2022-08-04T23:44:25.418Z,0.0
2022-08-04T23:46:18.445Z,0.0
2022-08-04T23:48:21.109Z,0.0
2022-08-04T23:50:18.477Z,0.0
2022-08-04T23:52:28.368Z,0.0
2022-08-04T23:54:25.648Z,0.0
2022-08-04T23:56:19.813Z,0.0
2022-08-04T23:58:18.877Z,0.0
